createdAt,value
2022-07-27T00:00:20.551Z,101923.69
2022-07-27T00:02:22.320Z,101927.16
2022-07-27T00:04:24.161Z,101928.09
2022-07-27T00:06:26.307Z,101928.88
2022-07-27T00:08:27.993Z,101930.59
2022-07-27T00:10:29.721Z,101932.41
2022-07-27T00:12:31.541Z,101924.44
2022-07-27T00:14:33.424Z,101926.28
2022-07-27T00:16:35.310Z,101929.81
2022-07-27T00:18:37.142Z,101929.75
2022-07-27T00:20:40.067Z,101924.44
2022-07-27T00:22:42.110Z,101922.78
2022-07-27T00:24:44.076Z,101922.72
2022-07-27T00:26:45.861Z,101926.25
2022-07-27T00:28:51.489Z,101915.72
2022-07-27T00:30:53.180Z,101911.28
2022-07-27T00:32:55.250Z,101903.50
2022-07-27T00:34:56.938Z,101902.53
2022-07-27T00:36:58.748Z,101908.69
2022-07-27T00:39:00.635Z,101914.75
2022-07-27T00:41:02.435Z,101904.31
2022-07-27T00:43:04.153Z,101904.38
2022-07-27T00:45:06.412Z,101905.25
2022-07-27T00:47:08.277Z,101908.81
2022-07-27T00:49:10.356Z,101902.63
2022-07-27T00:51:13.280Z,101908.72
2022-07-27T00:53:15.693Z,101902.69
2022-07-27T00:55:17.455Z,101903.50
2022-07-27T00:57:19.483Z,101905.22
2022-07-27T00:59:27.985Z,101903.50
2022-07-27T01:01:29.743Z,101902.72
2022-07-27T01:03:31.950Z,101906.13
2022-07-27T01:05:40.029Z,101904.25
2022-07-27T01:07:45.279Z,101903.47
2022-07-27T01:09:59.804Z,101903.56
2022-07-27T01:12:01.933Z,101899.19
2022-07-27T01:14:03.722Z,101897.50
2022-07-27T01:16:07.120Z,101901.84
2022-07-27T01:18:14.204Z,101899.19
2022-07-27T01:20:15.943Z,101900.03
2022-07-27T01:22:18.255Z,101897.41
2022-07-27T01:24:20.425Z,101897.44
2022-07-27T01:26:22.277Z,101900.97
2022-07-27T01:28:24.311Z,101901.78
2022-07-27T01:30:26.755Z,101894.81
2022-07-27T01:32:28.494Z,101900.09
2022-07-27T01:34:33.562Z,101900.97
2022-07-27T01:36:35.299Z,101902.69
2022-07-27T01:38:37.061Z,101900.91
2022-07-27T01:40:39.952Z,101893.25
2022-07-27T01:42:41.791Z,101894.94
2022-07-27T01:44:43.530Z,101894.03
2022-07-27T01:46:45.591Z,101884.50
2022-07-27T01:48:47.379Z,101885.38
2022-07-27T01:50:51.229Z,101887.13
2022-07-27T01:52:53.262Z,101894.84
2022-07-27T01:54:54.979Z,101893.16
2022-07-27T01:56:56.638Z,101887.94
2022-07-27T01:58:59.102Z,101892.31
2022-07-27T02:01:00.793Z,101887.03
2022-07-27T02:03:04.040Z,101886.16
2022-07-27T02:05:06.684Z,101880.06
2022-07-27T02:07:08.762Z,101880.94
2022-07-27T02:09:10.637Z,101881.78
2022-07-27T02:11:31.313Z,101875.75
2022-07-27T02:13:33.040Z,101881.81
2022-07-27T02:15:44.485Z,101879.16
2022-07-27T02:17:47.391Z,101878.22
2022-07-27T02:19:49.046Z,101880.03
2022-07-27T02:21:51.072Z,101878.25
2022-07-27T02:23:52.788Z,101873.88
2022-07-27T02:25:54.622Z,101875.63
2022-07-27T02:27:56.338Z,101880.84
2022-07-27T02:29:58.179Z,101879.97
2022-07-27T02:31:59.935Z,101877.34
2022-07-27T02:34:01.759Z,101869.56
2022-07-27T02:36:03.757Z,101873.00
2022-07-27T02:38:12.090Z,101871.34
2022-07-27T02:40:15.814Z,101873.13
2022-07-27T02:42:17.488Z,101867.03
2022-07-27T02:44:20.320Z,101872.16
2022-07-27T02:46:22.241Z,101859.22
2022-07-27T02:48:23.995Z,101861.72
2022-07-27T02:50:25.910Z,101860.88
2022-07-27T02:52:27.871Z,101853.09
2022-07-27T02:54:32.486Z,101852.22
2022-07-27T02:56:34.304Z,101851.44
2022-07-27T02:58:36.439Z,101853.25
2022-07-27T03:00:38.194Z,101860.13
2022-07-27T03:02:40.316Z,101855.84
2022-07-27T03:04:42.085Z,101861.94
2022-07-27T03:06:44.049Z,101857.59
2022-07-27T03:08:45.838Z,101848.97
2022-07-27T03:10:48.556Z,101851.59
2022-07-27T03:12:50.694Z,101851.59
2022-07-27T03:14:52.618Z,101852.38
2022-07-27T03:16:54.675Z,101848.13
2022-07-27T03:18:57.946Z,101854.19
2022-07-27T03:20:59.720Z,101849.78
2022-07-27T03:23:02.006Z,101850.66
2022-07-27T03:25:04.304Z,101848.03
2022-07-27T03:27:06.038Z,101848.06
2022-07-27T03:29:10.075Z,101848.91
2022-07-27T03:31:12.134Z,101848.03
2022-07-27T03:33:14.053Z,101842.84
2022-07-27T03:35:15.828Z,101846.22
2022-07-27T03:37:19.117Z,101839.34
2022-07-27T03:39:20.813Z,101838.44
2022-07-27T03:41:22.745Z,101842.84
2022-07-27T03:43:24.445Z,101836.84
2022-07-27T03:45:27.332Z,101845.47
2022-07-27T03:47:29.008Z,101843.78
2022-07-27T03:49:30.879Z,101838.53
2022-07-27T03:51:32.714Z,101847.09
2022-07-27T03:53:34.538Z,101845.47
2022-07-27T03:55:36.231Z,101847.19
2022-07-27T03:57:38.000Z,101845.44
2022-07-27T03:59:39.708Z,101841.97
2022-07-27T04:01:42.771Z,101847.06
2022-07-27T04:03:44.674Z,101841.91
2022-07-27T04:05:46.660Z,101846.28
2022-07-27T04:07:54.900Z,101848.84
2022-07-27T04:09:57.018Z,101848.03
2022-07-27T04:11:59.137Z,101850.63
2022-07-27T04:14:01.963Z,101850.63
2022-07-27T04:16:04.129Z,101846.31
2022-07-27T04:18:17.234Z,101847.94
2022-07-27T04:20:19.393Z,101848.03
2022-07-27T04:22:21.257Z,101851.50
2022-07-27T04:24:23.486Z,101849.72
2022-07-27T04:26:25.443Z,101850.66
2022-07-27T04:28:27.583Z,101848.94
2022-07-27T04:30:29.865Z,101844.59
2022-07-27T04:32:32.160Z,101843.72
2022-07-27T04:34:38.348Z,101840.25
2022-07-27T04:36:40.385Z,101849.78
2022-07-27T04:38:42.450Z,101849.81
2022-07-27T04:40:44.332Z,101849.78
2022-07-27T04:42:49.431Z,101848.94
2022-07-27T04:44:52.026Z,101851.53
2022-07-27T04:46:53.921Z,101850.66
2022-07-27T04:48:56.201Z,101861.13
2022-07-27T04:50:58.325Z,101861.13
2022-07-27T04:53:00.404Z,101857.69
2022-07-27T04:55:02.942Z,101860.28
2022-07-27T04:57:05.084Z,101857.59
2022-07-27T04:59:07.135Z,101858.47
2022-07-27T05:01:12.570Z,101868.03
2022-07-27T05:03:15.269Z,101867.91
2022-07-27T05:05:17.073Z,101865.31
2022-07-27T05:07:18.844Z,101870.53
2022-07-27T05:09:22.419Z,101862.78
2022-07-27T05:11:24.778Z,101869.63
2022-07-27T05:13:26.626Z,101864.44
2022-07-27T05:15:28.494Z,101873.13
2022-07-27T05:17:52.221Z,101865.41
2022-07-27T05:19:53.916Z,101868.88
2022-07-27T05:21:55.658Z,101861.94
2022-07-27T05:23:57.424Z,101871.50
2022-07-27T05:25:59.417Z,101864.56
2022-07-27T05:28:01.436Z,101877.63
2022-07-27T05:30:07.800Z,101874.16
2022-07-27T05:32:09.778Z,101887.19
2022-07-27T05:34:11.846Z,101880.25
2022-07-27T05:36:13.883Z,101888.91
2022-07-27T05:38:17.189Z,101892.38
2022-07-27T05:40:18.991Z,101883.72
2022-07-27T05:42:20.744Z,101882.75
2022-07-27T05:44:22.540Z,101886.25
2022-07-27T05:46:25.619Z,101889.72
2022-07-27T05:48:29.261Z,101886.25
2022-07-27T05:50:31.310Z,101881.97
2022-07-27T05:52:33.553Z,101892.28
2022-07-27T05:54:35.270Z,101889.69
2022-07-27T05:56:38.702Z,101896.72
2022-07-27T05:58:40.823Z,101894.94
2022-07-27T06:00:43.029Z,101889.72
2022-07-27T06:02:44.794Z,101895.84
2022-07-27T06:04:46.649Z,101893.16
2022-07-27T06:07:06.855Z,101904.50
2022-07-27T06:09:08.785Z,101898.38
2022-07-27T06:11:11.163Z,101901.94
2022-07-27T06:13:14.046Z,101896.75
2022-07-27T06:15:17.321Z,101895.91
2022-07-27T06:17:19.608Z,101891.56
2022-07-27T06:19:21.377Z,101893.38
2022-07-27T06:21:26.075Z,101892.50
2022-07-27T06:23:28.714Z,101896.94
2022-07-27T06:25:35.670Z,101889.19
2022-07-27T06:27:38.055Z,101883.94
2022-07-27T06:29:40.249Z,101897.88
2022-07-27T06:31:42.772Z,101899.56
2022-07-27T06:33:50.392Z,101894.41
2022-07-27T06:35:55.920Z,101893.53
2022-07-27T06:37:58.276Z,101903.97
2022-07-27T06:40:01.287Z,101897.81
2022-07-27T06:42:03.151Z,101900.50
2022-07-27T06:44:05.207Z,101903.09
2022-07-27T06:46:08.035Z,101900.56
2022-07-27T06:48:20.374Z,101896.16
2022-07-27T06:50:22.777Z,101900.63
2022-07-27T06:52:25.159Z,101911.91
2022-07-27T06:54:27.046Z,101917.13
2022-07-27T06:56:28.871Z,101915.34
2022-07-27T06:58:32.529Z,101916.31
2022-07-27T07:00:35.468Z,101916.34
2022-07-27T07:02:37.735Z,101917.19
2022-07-27T07:04:39.580Z,101912.91
2022-07-27T07:06:41.405Z,101908.50
2022-07-27T07:08:43.360Z,101909.38
2022-07-27T07:10:46.198Z,101914.59
2022-07-27T07:12:48.071Z,101913.78
2022-07-27T07:14:50.016Z,101917.19
2022-07-27T07:16:52.736Z,101912.94
2022-07-27T07:18:55.006Z,101915.53
2022-07-27T07:20:56.810Z,101921.69
2022-07-27T07:23:00.049Z,101918.19
2022-07-27T07:25:03.372Z,101921.69
2022-07-27T07:27:05.387Z,101923.50
2022-07-27T07:29:08.022Z,101926.09
2022-07-27T07:31:09.985Z,101920.00
2022-07-27T07:33:11.879Z,101923.53
2022-07-27T07:35:14.213Z,101931.38
2022-07-27T07:37:18.388Z,101920.06
2022-07-27T07:39:20.113Z,101918.34
2022-07-27T07:41:23.989Z,101923.56
2022-07-27T07:43:27.144Z,101922.69
2022-07-27T07:45:32.091Z,101925.28
2022-07-27T07:47:33.905Z,101924.47
2022-07-27T07:49:39.652Z,101926.25
2022-07-27T07:51:42.509Z,101928.00
2022-07-27T07:53:44.787Z,101928.88
2022-07-27T07:55:46.690Z,101927.13
2022-07-27T07:57:50.163Z,101931.53
2022-07-27T07:59:52.672Z,101934.09
2022-07-27T08:01:54.559Z,101936.75
2022-07-27T08:03:57.027Z,101940.22
2022-07-27T08:05:59.296Z,101931.53
2022-07-27T08:08:03.702Z,101942.06
2022-07-27T08:10:09.130Z,101937.63
2022-07-27T08:12:11.698Z,101936.84
2022-07-27T08:14:13.673Z,101942.09
2022-07-27T08:16:16.750Z,101936.84
2022-07-27T08:18:22.340Z,101943.84
2022-07-27T08:20:27.131Z,101942.09
2022-07-27T08:22:28.941Z,101940.31
2022-07-27T08:24:31.060Z,101938.56
2022-07-27T08:26:32.814Z,101938.63
2022-07-27T08:28:36.943Z,101942.13
2022-07-27T08:30:39.143Z,101933.47
2022-07-27T08:32:50.435Z,101933.50
2022-07-27T08:34:52.244Z,101934.34
2022-07-27T08:36:54.109Z,101930.00
2022-07-27T08:38:56.268Z,101934.34
2022-07-27T08:41:02.245Z,101930.03
2022-07-27T08:43:05.602Z,101932.66
2022-07-27T08:45:09.988Z,101923.06
2022-07-27T08:47:19.812Z,101928.31
2022-07-27T08:49:21.619Z,101937.00
2022-07-27T08:51:25.110Z,101920.47
2022-07-27T08:53:34.105Z,101924.81
2022-07-27T08:55:53.500Z,101920.47
2022-07-27T08:58:00.571Z,101922.28
2022-07-27T09:00:06.549Z,101922.28
2022-07-27T09:02:14.458Z,101922.25
2022-07-27T09:04:16.324Z,101923.13
2022-07-27T09:06:53.289Z,101915.28
2022-07-27T09:08:59.834Z,101920.50
2022-07-27T09:11:03.685Z,101917.91
2022-07-27T09:13:26.337Z,101917.91
2022-07-27T09:15:34.421Z,101917.03
2022-07-27T09:17:52.277Z,101917.88
2022-07-27T09:19:58.343Z,101917.03
2022-07-27T09:22:00.704Z,101920.50
2022-07-27T09:24:23.438Z,101916.16
2022-07-27T09:26:33.979Z,101915.28
2022-07-27T09:28:36.252Z,101910.94
2022-07-27T09:30:44.258Z,101909.16
2022-07-27T09:33:06.763Z,101905.69
2022-07-27T09:35:16.807Z,101906.59
2022-07-27T09:37:26.824Z,101911.78
2022-07-27T09:39:30.227Z,101908.34
2022-07-27T09:41:47.651Z,101911.81
2022-07-27T09:44:29.059Z,101909.19
2022-07-27T09:46:15.478Z,101917.91
2022-07-27T09:48:24.494Z,101910.91
2022-07-27T09:50:31.092Z,101910.94
2022-07-27T09:52:39.042Z,101916.16
2022-07-27T09:54:47.762Z,101915.31
2022-07-27T09:57:01.366Z,101912.66
2022-07-27T09:59:04.850Z,101903.94
2022-07-27T10:01:07.964Z,101905.72
2022-07-27T10:03:10.594Z,101902.22
2022-07-27T10:05:14.386Z,101905.72
2022-07-27T10:07:16.582Z,101903.09
2022-07-27T10:09:20.160Z,101899.59
2022-07-27T10:11:24.105Z,101903.13
2022-07-27T10:13:26.096Z,101903.97
2022-07-27T10:15:28.005Z,101900.47
2022-07-27T10:17:30.172Z,101897.84
2022-07-27T10:19:45.930Z,101901.31
2022-07-27T10:21:48.958Z,101894.38
2022-07-27T10:23:59.676Z,101893.47
2022-07-27T10:26:27.457Z,101896.97
2022-07-27T10:28:30.267Z,101892.56
2022-07-27T10:30:32.399Z,101889.09
2022-07-27T10:32:34.499Z,101885.56
2022-07-27T10:34:36.200Z,101889.94
2022-07-27T10:36:53.226Z,101887.31
2022-07-27T10:38:57.100Z,101882.94
2022-07-27T10:41:24.817Z,101885.53
2022-07-27T10:43:28.637Z,101886.41
2022-07-27T10:46:00.263Z,101883.78
2022-07-27T10:48:13.121Z,101879.41
2022-07-27T10:50:18.085Z,101874.13
2022-07-27T10:52:48.097Z,101877.69
2022-07-27T10:54:56.798Z,101880.25
2022-07-27T10:57:03.764Z,101874.16
2022-07-27T10:59:06.068Z,101874.13
2022-07-27T11:01:09.239Z,101867.97
2022-07-27T11:03:34.543Z,101868.81
2022-07-27T11:08:46.918Z,101877.53
2022-07-27T11:10:49.151Z,101866.25
2022-07-27T11:12:53.937Z,101863.63
2022-07-27T11:14:58.235Z,101862.69
2022-07-27T11:17:32.156Z,101862.75
2022-07-27T11:19:24.936Z,101854.00
2022-07-27T11:21:39.128Z,101859.19
2022-07-27T11:23:50.918Z,101862.72
2022-07-27T11:26:01.592Z,101858.44
2022-07-27T11:28:18.853Z,101868.81
2022-07-27T11:30:26.496Z,101859.25
2022-07-27T11:32:28.496Z,101857.50
2022-07-27T11:34:32.575Z,101854.94
2022-07-27T11:36:50.507Z,101860.13
2022-07-27T11:38:54.850Z,101858.44
2022-07-27T11:41:08.042Z,101853.19
2022-07-27T11:43:36.890Z,101853.22
2022-07-27T11:45:43.106Z,101849.75
2022-07-27T11:47:45.347Z,101848.00
2022-07-27T11:49:47.642Z,101851.53
2022-07-27T11:51:50.607Z,101848.88
2022-07-27T11:54:09.036Z,101839.25
2022-07-27T11:56:11.551Z,101843.63
2022-07-27T11:58:21.304Z,101844.53
2022-07-27T12:00:23.450Z,101845.34
2022-07-27T12:02:27.454Z,101843.66
2022-07-27T12:04:31.057Z,101850.63
2022-07-27T12:06:35.166Z,101834.06
2022-07-27T12:08:37.029Z,101844.53
2022-07-27T12:10:39.187Z,101837.53
2022-07-27T12:12:49.573Z,101841.88
2022-07-27T12:14:56.872Z,101835.78
2022-07-27T12:17:26.491Z,101833.19
2022-07-27T12:19:29.192Z,101835.75
2022-07-27T12:21:31.979Z,101837.47
2022-07-27T12:23:34.729Z,101832.25
2022-07-27T12:25:40.663Z,101833.94
2022-07-27T12:27:59.314Z,101834.00
2022-07-27T12:30:25.393Z,101835.69
2022-07-27T12:32:31.628Z,101833.09
2022-07-27T12:34:36.737Z,101828.72
2022-07-27T12:36:42.634Z,101824.34
2022-07-27T12:38:49.001Z,101833.91
2022-07-27T12:41:01.147Z,101822.53
2022-07-27T12:43:07.652Z,101826.00
2022-07-27T12:45:19.379Z,101821.63
2022-07-27T12:47:40.541Z,101826.06
2022-07-27T12:49:46.472Z,101825.16
2022-07-27T12:51:48.753Z,101814.69
2022-07-27T12:53:53.094Z,101808.53
2022-07-27T12:55:58.739Z,101814.63
2022-07-27T12:58:02.902Z,101814.63
2022-07-27T13:00:07.916Z,101811.19
2022-07-27T13:02:09.790Z,101810.28
2022-07-27T13:04:11.736Z,101814.59
2022-07-27T13:06:14.406Z,101813.75
2022-07-27T13:08:23.363Z,101819.88
2022-07-27T13:10:26.096Z,101818.97
2022-07-27T13:12:28.257Z,101818.13
2022-07-27T13:14:30.330Z,101821.69
2022-07-27T13:16:32.292Z,101819.03
2022-07-27T13:18:34.634Z,101813.81
2022-07-27T13:20:37.217Z,101807.78
2022-07-27T13:22:40.443Z,101814.72
2022-07-27T13:24:42.836Z,101807.88
2022-07-27T13:26:44.826Z,101799.13
2022-07-27T13:28:48.585Z,101796.50
2022-07-27T13:30:51.531Z,101802.63
2022-07-27T13:32:53.901Z,101800.84
2022-07-27T13:34:55.739Z,101802.56
2022-07-27T13:36:57.578Z,101806.09
2022-07-27T13:38:59.349Z,101804.38
2022-07-27T13:41:01.538Z,101805.28
2022-07-27T13:43:03.400Z,101801.78
2022-07-27T13:45:12.223Z,101798.28
2022-07-27T13:47:14.473Z,101804.41
2022-07-27T13:49:18.052Z,101801.75
2022-07-27T13:51:20.321Z,101804.38
2022-07-27T13:53:22.694Z,101806.09
2022-07-27T13:55:28.283Z,101813.06
2022-07-27T13:57:30.279Z,101800.88
2022-07-27T13:59:32.179Z,101801.78
2022-07-27T14:01:35.883Z,101795.78
2022-07-27T14:03:41.946Z,101802.69
2022-07-27T14:05:49.129Z,101797.47
2022-07-27T14:07:52.949Z,101801.81
2022-07-27T14:10:13.461Z,101802.72
2022-07-27T14:12:15.476Z,101798.34
2022-07-27T14:14:17.331Z,101793.13
2022-07-27T14:16:27.490Z,101794.00
2022-07-27T14:18:38.868Z,101800.06
2022-07-27T14:20:41.284Z,101794.81
2022-07-27T14:22:43.644Z,101785.25
2022-07-27T14:24:45.661Z,101792.25
2022-07-27T14:26:49.578Z,101789.63
2022-07-27T14:28:52.849Z,101786.13
2022-07-27T14:30:55.912Z,101783.50
2022-07-27T14:33:03.021Z,101787.75
2022-07-27T14:35:06.809Z,101787.75
2022-07-27T14:37:08.600Z,101782.59
2022-07-27T14:39:11.407Z,101783.53
2022-07-27T14:41:13.429Z,101784.34
2022-07-27T14:43:16.206Z,101776.44
2022-07-27T14:45:18.041Z,101777.38
2022-07-27T14:47:20.515Z,101763.44
2022-07-27T14:49:23.209Z,101777.38
2022-07-27T14:51:25.942Z,101759.03
2022-07-27T14:53:28.153Z,101766.88
2022-07-27T14:55:31.101Z,101766.91
2022-07-27T14:57:33.222Z,101761.69
2022-07-27T14:59:36.056Z,101759.06
2022-07-27T15:01:40.606Z,101752.94
2022-07-27T15:03:42.770Z,101746.84
2022-07-27T15:05:50.280Z,101753.00
2022-07-27T15:07:53.305Z,101745.16
2022-07-27T15:09:55.083Z,101741.66
2022-07-27T15:11:58.579Z,101735.47
2022-07-27T15:14:00.631Z,101739.88
2022-07-27T15:16:07.446Z,101739.84
2022-07-27T15:18:18.944Z,101738.19
2022-07-27T15:20:20.914Z,101742.53
2022-07-27T15:22:24.764Z,101742.56
2022-07-27T15:24:26.712Z,101736.47
2022-07-27T15:26:28.445Z,101724.19
2022-07-27T15:28:30.644Z,101724.19
2022-07-27T15:30:38.145Z,101724.13
2022-07-27T15:32:40.735Z,101724.13
2022-07-27T15:34:43.253Z,101725.09
2022-07-27T15:36:51.629Z,101722.44
2022-07-27T15:38:54.035Z,101722.44
2022-07-27T15:40:56.230Z,101728.53
2022-07-27T15:43:00.542Z,101717.22
2022-07-27T15:45:02.952Z,101714.56
2022-07-27T15:47:05.014Z,101715.34
2022-07-27T15:49:06.974Z,101713.56
2022-07-27T15:51:09.528Z,101718.78
2022-07-27T15:53:12.259Z,101717.97
2022-07-27T15:55:16.875Z,101707.50
2022-07-27T15:57:18.951Z,101711.78
2022-07-27T15:59:20.738Z,101702.19
2022-07-27T16:01:23.031Z,101705.75
2022-07-27T16:03:38.008Z,101704.03
2022-07-27T16:05:41.134Z,101696.16
2022-07-27T16:07:43.005Z,101700.56
2022-07-27T16:09:44.768Z,101699.63
2022-07-27T16:11:46.606Z,101701.47
2022-07-27T16:13:48.481Z,101697.97
2022-07-27T16:16:09.047Z,101701.44
2022-07-27T16:18:16.197Z,101693.59
2022-07-27T16:20:18.095Z,101695.31
2022-07-27T16:22:19.923Z,101690.97
2022-07-27T16:24:22.364Z,101689.19
2022-07-27T16:26:25.153Z,101689.22
2022-07-27T16:28:28.203Z,101691.84
2022-07-27T16:30:33.987Z,101683.94
2022-07-27T16:32:39.752Z,101686.56
2022-07-27T16:34:41.574Z,101690.06
2022-07-27T16:36:43.269Z,101688.34
2022-07-27T16:38:54.505Z,101687.47
2022-07-27T16:40:56.422Z,101689.31
2022-07-27T16:42:59.676Z,101688.47
2022-07-27T16:45:02.007Z,101690.13
2022-07-27T16:47:06.304Z,101684.88
2022-07-27T16:49:08.755Z,101682.28
2022-07-27T16:51:15.195Z,101688.41
2022-07-27T16:53:17.410Z,101689.31
2022-07-27T16:55:19.287Z,101686.72
2022-07-27T16:57:24.367Z,101687.56
2022-07-27T16:59:26.175Z,101686.81
2022-07-27T17:01:29.143Z,101682.44
2022-07-27T17:03:31.283Z,101677.13
2022-07-27T17:05:33.525Z,101679.72
2022-07-27T17:07:35.672Z,101678.03
2022-07-27T17:09:37.449Z,101673.66
2022-07-27T17:11:39.275Z,101676.28
2022-07-27T17:13:46.887Z,101670.19
2022-07-27T17:15:52.537Z,101661.41
2022-07-27T17:17:54.370Z,101665.81
2022-07-27T17:19:56.365Z,101665.88
2022-07-27T17:21:58.443Z,101671.06
2022-07-27T17:24:00.226Z,101668.44
2022-07-27T17:26:01.963Z,101665.84
2022-07-27T17:28:07.719Z,101664.94
2022-07-27T17:30:10.180Z,101665.81
2022-07-27T17:32:11.979Z,101657.06
2022-07-27T17:34:13.841Z,101658.81
2022-07-27T17:36:15.972Z,101665.78
2022-07-27T17:38:23.215Z,101659.66
2022-07-27T17:40:25.539Z,101663.19
2022-07-27T17:42:27.512Z,101659.66
2022-07-27T17:44:29.444Z,101665.78
2022-07-27T17:46:34.381Z,101669.28
2022-07-27T17:48:41.184Z,101666.66
2022-07-27T17:50:43.362Z,101663.16
2022-07-27T17:52:45.823Z,101663.16
2022-07-27T17:54:48.173Z,101657.94
2022-07-27T17:56:50.080Z,101660.56
2022-07-27T17:58:51.971Z,101664.03
2022-07-27T18:00:53.857Z,101657.06
2022-07-27T18:02:56.455Z,101660.53
2022-07-27T18:04:58.335Z,101652.69
2022-07-27T18:07:00.918Z,101651.84
2022-07-27T18:09:03.001Z,101656.16
2022-07-27T18:11:05.812Z,101645.72
2022-07-27T18:13:08.497Z,101651.84
2022-07-27T18:15:29.126Z,101653.56
2022-07-27T18:17:31.078Z,101650.94
2022-07-27T18:19:33.196Z,101657.09
2022-07-27T18:21:35.875Z,101653.56
2022-07-27T18:23:38.059Z,101652.72
2022-07-27T18:25:39.964Z,101655.41
2022-07-27T18:27:43.165Z,101654.53
2022-07-27T18:29:45.056Z,101649.28
2022-07-27T18:31:47.110Z,101647.50
2022-07-27T18:33:50.976Z,101642.34
2022-07-27T18:35:53.567Z,101644.94
2022-07-27T18:37:56.163Z,101641.47
2022-07-27T18:39:58.076Z,101645.84
2022-07-27T18:42:03.935Z,101647.56
2022-07-27T18:44:06.289Z,101638.84
2022-07-27T18:46:08.208Z,101642.34
2022-07-27T18:48:16.945Z,101649.31
2022-07-27T18:50:18.901Z,101643.28
2022-07-27T18:52:20.767Z,101648.53
2022-07-27T18:54:23.275Z,101647.63
2022-07-27T18:56:25.309Z,101651.94
2022-07-27T18:58:28.920Z,101646.78
2022-07-27T19:00:31.018Z,101651.97
2022-07-27T19:02:39.097Z,101647.69
2022-07-27T19:04:41.550Z,101648.53
2022-07-27T19:06:44.934Z,101655.53
2022-07-27T19:08:48.013Z,101649.44
2022-07-27T19:10:51.296Z,101644.22
2022-07-27T19:12:54.501Z,101639.84
2022-07-27T19:14:58.129Z,101642.44
2022-07-27T19:17:00.222Z,101646.81
2022-07-27T19:19:03.279Z,101641.56
2022-07-27T19:21:05.417Z,101648.53
2022-07-27T19:23:08.015Z,101645.06
2022-07-27T19:25:09.927Z,101649.44
2022-07-27T19:27:12.011Z,101652.03
2022-07-27T19:29:17.287Z,101652.91
2022-07-27T19:31:21.639Z,101647.72
2022-07-27T19:33:25.688Z,101645.97
2022-07-27T19:35:28.023Z,101648.59
2022-07-27T19:37:31.581Z,101645.16
2022-07-27T19:39:56.978Z,101648.63
2022-07-27T19:41:56.846Z,101654.66
2022-07-27T19:43:59.386Z,101647.75
2022-07-27T19:46:01.703Z,101662.56
2022-07-27T19:48:13.591Z,101650.31
2022-07-27T19:50:15.675Z,101659.91
2022-07-27T19:52:17.758Z,101669.53
2022-07-27T19:54:19.947Z,101665.19
2022-07-27T19:56:22.165Z,101672.19
2022-07-27T19:58:24.174Z,101672.19
2022-07-27T20:00:26.371Z,101679.16
2022-07-27T20:02:28.220Z,101675.72
2022-07-27T20:04:30.096Z,101679.22
2022-07-27T20:06:32.878Z,101672.22
2022-07-27T20:08:35.062Z,101675.72
2022-07-27T20:10:36.806Z,101677.47
2022-07-27T20:12:38.727Z,101678.38
2022-07-27T20:14:40.486Z,101683.59
2022-07-27T20:16:42.280Z,101686.19
2022-07-27T20:18:44.042Z,101696.66
2022-07-27T20:20:45.783Z,101695.78
2022-07-27T20:22:47.676Z,101700.13
2022-07-27T20:24:49.392Z,101701.00
2022-07-27T20:26:51.185Z,101709.72
2022-07-27T20:28:53.256Z,101706.25
2022-07-27T20:30:55.305Z,101703.66
2022-07-27T20:32:57.136Z,101707.16
2022-07-27T20:34:58.960Z,101702.81
2022-07-27T20:37:00.666Z,101704.53
2022-07-27T20:39:04.890Z,101704.56
2022-07-27T20:41:09.273Z,101704.53
2022-07-27T20:43:11.081Z,101700.22
2022-07-27T20:45:14.690Z,101707.16
2022-07-27T20:47:16.612Z,101699.31
2022-07-27T20:49:19.027Z,101707.16
2022-07-27T20:51:21.259Z,101696.72
2022-07-27T20:53:24.360Z,101698.47
2022-07-27T20:55:26.136Z,101699.34
2022-07-27T20:57:28.192Z,101694.09
2022-07-27T20:59:30.127Z,101698.44
2022-07-27T21:01:31.936Z,101700.19
2022-07-27T21:03:34.394Z,101699.34
2022-07-27T21:05:36.094Z,101699.34
2022-07-27T21:07:38.157Z,101701.97
2022-07-27T21:09:40.271Z,101695.84
2022-07-27T21:11:42.212Z,101699.34
2022-07-27T21:13:43.923Z,101699.31
2022-07-27T21:15:45.608Z,101699.34
2022-07-27T21:17:47.301Z,101709.78
2022-07-27T21:19:49.011Z,101709.78
2022-07-27T21:21:50.694Z,101703.69
2022-07-27T21:24:11.510Z,101701.97
2022-07-27T21:26:18.116Z,101700.22
2022-07-27T21:28:24.684Z,101702.81
2022-07-27T21:30:26.754Z,101704.53
2022-07-27T21:32:29.085Z,101704.53
2022-07-27T21:34:30.894Z,101697.59
2022-07-27T21:36:36.347Z,101702.81
2022-07-27T21:38:41.046Z,101697.59
2022-07-27T21:40:42.914Z,101699.31
2022-07-27T21:42:44.619Z,101695.81
2022-07-27T21:44:46.851Z,101695.78
2022-07-27T21:46:52.749Z,101701.88
2022-07-27T21:48:54.934Z,101703.63
2022-07-27T21:50:56.731Z,101701.03
2022-07-27T21:53:00.091Z,101700.16
2022-07-27T21:55:01.824Z,101698.41
2022-07-27T21:57:03.566Z,101696.66
2022-07-27T21:59:05.285Z,101701.88
2022-07-27T22:01:10.247Z,101701.03
2022-07-27T22:03:12.196Z,101702.75
2022-07-27T22:05:13.914Z,101701.00
2022-07-27T22:07:16.787Z,101705.34
2022-07-27T22:09:21.505Z,101703.59
2022-07-27T22:11:23.380Z,101696.63
2022-07-27T22:13:25.906Z,101694.91
2022-07-27T22:15:28.025Z,101697.50
2022-07-27T22:17:29.682Z,101699.28
2022-07-27T22:19:31.374Z,101700.16
2022-07-27T22:21:33.082Z,101701.00
2022-07-27T22:23:34.871Z,101696.63
2022-07-27T22:25:37.559Z,101699.28
2022-07-27T22:27:39.504Z,101696.66
2022-07-27T22:29:41.203Z,101706.22
2022-07-27T22:31:42.987Z,101701.00
2022-07-27T22:33:44.914Z,101701.00
2022-07-27T22:35:46.679Z,101700.09
2022-07-27T22:37:49.273Z,101702.69
2022-07-27T22:39:51.014Z,101694.00
2022-07-27T22:41:52.763Z,101692.28
2022-07-27T22:43:54.552Z,101697.47
2022-07-27T22:45:56.485Z,101700.03
2022-07-27T22:47:58.236Z,101688.78
2022-07-27T22:50:00.037Z,101685.25
2022-07-27T22:52:02.326Z,101681.81
2022-07-27T22:54:04.472Z,101688.78
2022-07-27T22:56:06.302Z,101680.94
2022-07-27T22:58:13.076Z,101680.91
2022-07-27T23:00:15.015Z,101682.66
2022-07-27T23:02:16.690Z,101676.59
2022-07-27T23:04:18.790Z,101679.19
2022-07-27T23:06:20.896Z,101676.56
2022-07-27T23:08:24.664Z,101669.66
2022-07-27T23:10:44.884Z,101665.28
2022-07-27T23:12:46.621Z,101658.31
2022-07-27T23:14:49.137Z,101658.31
2022-07-27T23:16:51.022Z,101655.75
2022-07-27T23:18:52.765Z,101653.94
2022-07-27T23:20:54.656Z,101661.75
2022-07-27T23:22:56.435Z,101655.72
2022-07-27T23:24:58.785Z,101656.59
2022-07-27T23:27:00.495Z,101660.06
2022-07-27T23:29:02.335Z,101661.78
2022-07-27T23:31:04.161Z,101665.25
2022-07-27T23:33:06.194Z,101662.66
2022-07-27T23:35:08.503Z,101666.97
2022-07-27T23:37:10.248Z,101656.59
2022-07-27T23:39:11.995Z,101666.13